Flag for South Africa

Past Weather in 33°55'00"S, 19°07'59"E, South Africa — Yesterday and Last 2 Weeks

Currently: 64 °F. Light rain. Passing clouds. (Weather station: Cape Town International Airport, South Africa). See more current weather

Past Weather in 33°55'00"S, 19°07'59"E — Graph

°F

33°55'00"S, 19°07'59"E Temperature Yesterday

Maximum temperature yesterday: 81 °F (at 11:30 am)
Minimum temperature yesterday: 59 °F (at 5:00 am)
Average temperature yesterday: 71 °F

High & Low Weather Summary for the Past Weeks

 TemperatureHumidityPressure
High95 °F (Feb 19, 2:00 pm)100% (Feb 20, 5:14 am)30.24 "Hg (Feb 20, 5:14 am)
Low55 °F (Feb 11, 5:16 am)20% (Feb 19, 2:00 pm)29.71 "Hg (Feb 23, 3:00 pm)
Average70 °F66%29.97 "Hg
* Reported Feb 9 7:00 pm — Feb 24 7:19 pm, 33°55'00"S, 19°07'59"E. Weather by CustomWeather, © 2024

Note: Actual official high and low records may vary slightly from our data, if they occured in-between our weather recording intervals... More about our weather records

33°55'00"S, 19°07'59"E Weather History for the Previous 24 Hours

Scroll right to see more
 ConditionsComfort  
Time TempWeatherWind HumidityBarometerVisibility
7:19 pm
Sat, Feb 24
64 °FLight rain. Partly sunny.5 mph94%29.95 "Hg5 mi
6:51 pm66 °FPartly sunny.5 mph88%29.92 "HgN/A
6:00 pm64 °FLight rain. Partly sunny.2 mph88%29.89 "HgN/A
5:35 pm64 °FLight rain. Partly sunny.14 mph88%29.89 "Hg3 mi
5:12 pm64 °FDrizzle. Partly sunny.10 mph94%29.92 "Hg2 mi
4:44 pm66 °FDrizzle. Partly sunny.15 mph94%29.89 "Hg2 mi
4:33 pm66 °FDrizzle. Partly sunny.15 mph94%29.89 "Hg2 mi
4:06 pm70 °FDrizzle. Partly sunny.21 mph83%29.89 "Hg3 mi
3:00 pm73 °FPartly sunny.24 mph69%29.89 "HgN/A
2:00 pm72 °FPartly sunny.22 mph65%29.89 "HgN/A
1:00 pm73 °FPartly sunny.15 mph57%29.89 "HgN/A
12:00 pm72 °FPartly sunny.18 mph65%29.92 "HgN/A
11:26 am70 °FPartly sunny.20 mph69%29.92 "HgN/A
11:00 am72 °FPartly sunny.15 mph61%29.92 "HgN/A
10:00 am68 °FBroken clouds.18 mph73%29.92 "HgN/A
9:00 am66 °FPartly sunny.13 mph78%29.89 "HgN/A
8:00 am66 °FBroken clouds.12 mph78%29.89 "HgN/A
7:00 am66 °FPartly sunny.13 mph78%29.86 "HgN/A
6:00 am63 °FPassing clouds.9 mph88%29.83 "HgN/A
5:00 am63 °FPassing clouds.10 mph88%29.80 "HgN/A
4:00 am64 °FClear.9 mph83%29.80 "Hg10 mi
3:00 am63 °FPassing clouds.9 mph83%29.83 "HgN/A
1:00 am63 °FPassing clouds.5 mph83%29.83 "HgN/A
12:02 am63 °FClear.5 mph83%29.83 "Hg10 mi
11:16 pm
Fri, Feb 23
63 °FClear.1 mph77%29.83 "Hg10 mi
10:00 pm64 °FClear.6 mph78%29.80 "Hg10 mi
9:00 pm68 °FClear.10 mph69%29.80 "Hg10 mi
8:00 pm68 °FClear.13 mph73%29.77 "Hg10 mi
Weather by CustomWeather, © 2024

See weather overview